GLO1751 SBVT-SBBR
Flight info
| Callsign | GLO1751 |
|---|---|
| Flight time | 1h 20m |
| Altitude | 38000 |
| Route | OPLOX UZ40 OPGOL |
| Aircraft | B737/M-SDFGIKLORWXY/LB1 |
Departure
| Time | 2026-04-23 00:07 |
|---|---|
| Airport | Eurico de Aguiar Salles International Airport (SBVT) |
Arrival
| Time | 2026-04-23 01:27 |
|---|---|
| Airport | Presidente Juscelino Kubitschek International Airport (SBBR) |
| Time | Latitude | Longitude | Altitude | Speed | Heading |
|---|---|---|---|---|---|
| 2026-04-22 23:42 | -20.26536 | -40.28171 | 30 ft | 0 kts | 262° |
| 2026-04-22 23:56 | -20.26536 | -40.28170 | 26 ft | 2 kts | 262° |
| 2026-04-22 23:56 | -20.26533 | -40.28150 | 26 ft | 3 kts | 262° |
| 2026-04-22 23:56 | -20.26530 | -40.28129 | 32 ft | 3 kts | 272° |
| 2026-04-22 23:56 | -20.26534 | -40.28109 | 36 ft | 3 kts | 306° |
| 2026-04-22 23:57 | -20.26548 | -40.28096 | 36 ft | 3 kts | 343° |
| 2026-04-22 23:57 | -20.26559 | -40.28093 | 36 ft | 1 kts | 352° |
| 2026-04-22 23:57 | -20.26560 | -40.28093 | 36 ft | 1 kts | 352° |
| 2026-04-23 00:02 | -20.26556 | -40.28094 | 37 ft | 2 kts | 352° |
| 2026-04-23 00:02 | -20.26534 | -40.28097 | 37 ft | 5 kts | 352° |
| 2026-04-23 00:02 | -20.26490 | -40.28103 | 37 ft | 8 kts | 352° |
| 2026-04-23 00:03 | -20.26417 | -40.28114 | 36 ft | 13 kts | 351° |
| 2026-04-23 00:03 | -20.26330 | -40.28096 | 35 ft | 14 kts | 44° |
| 2026-04-23 00:03 | -20.26237 | -40.28080 | 37 ft | 15 kts | 353° |
| 2026-04-23 00:03 | -20.26092 | -40.28099 | 36 ft | 17 kts | 352° |
| 2026-04-23 00:04 | -20.26012 | -40.28111 | 36 ft | 17 kts | 352° |
| 2026-04-23 00:04 | -20.25891 | -40.28128 | 36 ft | 19 kts | 352° |
| 2026-04-23 00:04 | -20.25755 | -40.28148 | 33 ft | 21 kts | 352° |
| 2026-04-23 00:04 | -20.25614 | -40.28171 | 32 ft | 20 kts | 350° |
| 2026-04-23 00:05 | -20.25477 | -40.28193 | 30 ft | 20 kts | 351° |
| 2026-04-23 00:05 | -20.25363 | -40.28195 | 27 ft | 11 kts | 23° |
| 2026-04-23 00:05 | -20.25311 | -40.28160 | 28 ft | 9 kts | 32° |
| 2026-04-23 00:05 | -20.25260 | -40.28125 | 29 ft | 9 kts | 32° |
| 2026-04-23 00:06 | -20.25208 | -40.28090 | 29 ft | 9 kts | 32° |
| 2026-04-23 00:06 | -20.25215 | -40.28051 | 29 ft | 7 kts | 156° |
| 2026-04-23 00:06 | -20.25326 | -40.28034 | 34 ft | 44 kts | 172° |
| 2026-04-23 00:06 | -20.25894 | -40.27951 | 40 ft | 118 kts | 172° |
| 2026-04-23 00:07 | -20.26904 | -40.27806 | 152 ft | 165 kts | 172° |
| 2026-04-23 00:07 | -20.28038 | -40.27650 | 956 ft | 161 kts | 173° |
| 2026-04-23 00:07 | -20.29184 | -40.27505 | 1681 ft | 179 kts | 174° |
| 2026-04-23 00:07 | -20.30548 | -40.27313 | 2053 ft | 215 kts | 172° |
| 2026-04-23 00:08 | -20.32135 | -40.27059 | 2416 ft | 247 kts | 171° |
| 2026-04-23 00:08 | -20.33905 | -40.26784 | 3172 ft | 261 kts | 171° |
| 2026-04-23 00:08 | -20.35709 | -40.26572 | 4304 ft | 263 kts | 182° |
| 2026-04-23 00:08 | -20.37457 | -40.27155 | 5354 ft | 269 kts | 212° |
| 2026-04-23 00:09 | -20.38747 | -40.28550 | 6435 ft | 272 kts | 238° |
| 2026-04-23 00:09 | -20.39345 | -40.30464 | 7478 ft | 278 kts | 264° |
| 2026-04-23 00:09 | -20.39096 | -40.32512 | 7879 ft | 284 kts | 291° |
| 2026-04-23 00:09 | -20.38155 | -40.34382 | 8004 ft | 289 kts | 302° |
| 2026-04-23 00:10 | -20.37010 | -40.36141 | 8024 ft | 288 kts | 305° |
| 2026-04-23 00:10 | -20.35812 | -40.37870 | 8317 ft | 293 kts | 305° |
| 2026-04-23 00:10 | -20.34605 | -40.39624 | 9368 ft | 292 kts | 304° |
| 2026-04-23 00:10 | -20.33420 | -40.41383 | 10408 ft | 293 kts | 304° |
| 2026-04-23 00:11 | -20.32209 | -40.43212 | 10930 ft | 314 kts | 304° |
| 2026-04-23 00:11 | -20.30917 | -40.45190 | 11449 ft | 331 kts | 304° |
| 2026-04-23 00:11 | -20.29615 | -40.47198 | 12301 ft | 336 kts | 304° |
| 2026-04-23 00:11 | -20.28285 | -40.49257 | 13224 ft | 339 kts | 304° |
| 2026-04-23 00:12 | -20.26941 | -40.51341 | 14038 ft | 344 kts | 304° |
| 2026-04-23 00:12 | -20.25574 | -40.53460 | 14815 ft | 350 kts | 304° |
| 2026-04-23 00:12 | -20.24156 | -40.55591 | 15597 ft | 356 kts | 307° |
| 2026-04-23 00:12 | -20.22589 | -40.57655 | 16389 ft | 361 kts | 309° |
| 2026-04-23 00:13 | -20.20946 | -40.59699 | 17150 ft | 366 kts | 310° |
| 2026-04-23 00:13 | -20.19290 | -40.61733 | 17867 ft | 372 kts | 310° |
| 2026-04-23 00:13 | -20.17588 | -40.63828 | 18594 ft | 376 kts | 309° |
| 2026-04-23 00:13 | -20.15877 | -40.65952 | 19322 ft | 380 kts | 309° |
| 2026-04-23 00:14 | -20.14156 | -40.68100 | 20071 ft | 382 kts | 309° |
| 2026-04-23 00:14 | -20.12428 | -40.70265 | 20787 ft | 385 kts | 309° |
| 2026-04-23 00:14 | -20.10688 | -40.72450 | 21473 ft | 389 kts | 309° |
| 2026-04-23 00:14 | -20.08935 | -40.74653 | 22139 ft | 392 kts | 309° |
| 2026-04-23 00:15 | -20.07172 | -40.76870 | 22763 ft | 395 kts | 309° |
| 2026-04-23 00:15 | -20.05413 | -40.79082 | 23342 ft | 398 kts | 309° |
| 2026-04-23 00:15 | -20.03619 | -40.81336 | 23921 ft | 401 kts | 309° |
| 2026-04-23 00:15 | -20.01808 | -40.83609 | 24486 ft | 404 kts | 309° |
| 2026-04-23 00:16 | -19.99981 | -40.85902 | 24988 ft | 409 kts | 308° |
| 2026-04-23 00:16 | -19.98132 | -40.88223 | 25432 ft | 415 kts | 308° |
| 2026-04-23 00:16 | -19.96251 | -40.90583 | 25799 ft | 422 kts | 308° |
| 2026-04-23 00:16 | -19.94344 | -40.92973 | 26227 ft | 426 kts | 308° |
| 2026-04-23 00:17 | -19.92422 | -40.95382 | 26710 ft | 429 kts | 308° |
| 2026-04-23 00:17 | -19.90482 | -40.97812 | 27157 ft | 433 kts | 308° |
| 2026-04-23 00:17 | -19.88524 | -41.00264 | 27557 ft | 438 kts | 308° |
| 2026-04-23 00:17 | -19.86570 | -41.02713 | 27944 ft | 442 kts | 307° |
| 2026-04-23 00:18 | -19.84787 | -41.05373 | 28303 ft | 443 kts | 297° |
| 2026-04-23 00:18 | -19.83290 | -41.08242 | 28711 ft | 445 kts | 294° |
| 2026-04-23 00:18 | -19.81850 | -41.11163 | 29115 ft | 448 kts | 294° |
| 2026-04-23 00:18 | -19.80387 | -41.14099 | 29498 ft | 452 kts | 294° |
| 2026-04-23 00:19 | -19.78877 | -41.17043 | 29817 ft | 456 kts | 295° |
| 2026-04-23 00:19 | -19.77327 | -41.19996 | 30153 ft | 460 kts | 295° |
| 2026-04-23 00:19 | -19.75753 | -41.22970 | 30496 ft | 463 kts | 295° |
| 2026-04-23 00:19 | -19.74180 | -41.25963 | 30871 ft | 465 kts | 295° |
| 2026-04-23 00:20 | -19.72610 | -41.28975 | 31249 ft | 468 kts | 295° |
| 2026-04-23 00:20 | -19.71035 | -41.32005 | 31584 ft | 470 kts | 295° |
| 2026-04-23 00:20 | -19.69471 | -41.35014 | 31912 ft | 473 kts | 295° |
| 2026-04-23 00:20 | -19.67881 | -41.38064 | 32337 ft | 472 kts | 295° |
| 2026-04-23 00:21 | -19.66292 | -41.41108 | 32840 ft | 471 kts | 295° |
| 2026-04-23 00:21 | -19.64703 | -41.44143 | 33320 ft | 470 kts | 295° |
| 2026-04-23 00:21 | -19.63114 | -41.47167 | 33804 ft | 468 kts | 295° |
| 2026-04-23 00:21 | -19.61525 | -41.50180 | 34230 ft | 468 kts | 295° |
| 2026-04-23 00:22 | -19.59935 | -41.53193 | 34630 ft | 468 kts | 295° |
| 2026-04-23 00:22 | -19.58349 | -41.56198 | 35050 ft | 466 kts | 295° |
| 2026-04-23 00:22 | -19.56769 | -41.59189 | 35472 ft | 465 kts | 295° |
| 2026-04-23 00:22 | -19.55214 | -41.62134 | 35850 ft | 463 kts | 295° |
| 2026-04-23 00:23 | -19.53640 | -41.65117 | 36207 ft | 463 kts | 295° |
| 2026-04-23 00:23 | -19.52068 | -41.68094 | 36547 ft | 463 kts | 295° |
| 2026-04-23 00:23 | -19.50495 | -41.71070 | 36869 ft | 463 kts | 294° |
| 2026-04-23 00:23 | -19.48925 | -41.74039 | 37245 ft | 460 kts | 294° |
| 2026-04-23 00:24 | -19.47366 | -41.76985 | 37637 ft | 457 kts | 294° |
| 2026-04-23 00:24 | -19.45816 | -41.79914 | 37992 ft | 455 kts | 294° |
| 2026-04-23 00:24 | -19.44289 | -41.82801 | 38111 ft | 458 kts | 294° |
| 2026-04-23 00:25 | -19.41164 | -41.88698 | 38108 ft | 458 kts | 294° |
| 2026-04-23 00:25 | -19.38076 | -41.94531 | 38097 ft | 450 kts | 294° |
| 2026-04-23 00:26 | -19.35021 | -42.00313 | 38114 ft | 450 kts | 295° |
| 2026-04-23 00:26 | -19.31918 | -42.06083 | 38108 ft | 452 kts | 296° |
| 2026-04-23 00:27 | -19.28737 | -42.11774 | 38104 ft | 452 kts | 296° |
| 2026-04-23 00:27 | -19.25533 | -42.17506 | 38104 ft | 453 kts | 296° |
| 2026-04-23 00:28 | -19.22298 | -42.23227 | 38101 ft | 453 kts | 296° |
| 2026-04-23 00:28 | -19.19067 | -42.28945 | 38108 ft | 453 kts | 296° |
| 2026-04-23 00:29 | -19.15835 | -42.34671 | 38099 ft | 454 kts | 296° |
| 2026-04-23 00:29 | -19.12615 | -42.40364 | 38104 ft | 454 kts | 297° |
| 2026-04-23 00:30 | -19.09391 | -42.46105 | 38103 ft | 454 kts | 295° |
| 2026-04-23 00:30 | -19.06343 | -42.51943 | 38109 ft | 454 kts | 294° |
| 2026-04-23 00:31 | -19.03323 | -42.57802 | 38109 ft | 454 kts | 295° |
| 2026-04-23 00:31 | -19.00294 | -42.63613 | 38115 ft | 455 kts | 295° |
| 2026-04-23 00:32 | -18.97231 | -42.69460 | 38109 ft | 455 kts | 295° |
| 2026-04-23 00:32 | -18.94159 | -42.75316 | 38114 ft | 456 kts | 295° |
| 2026-04-23 00:33 | -18.91051 | -42.81158 | 38117 ft | 457 kts | 296° |
| 2026-04-23 00:33 | -18.87845 | -42.86945 | 38117 ft | 456 kts | 296° |
| 2026-04-23 00:34 | -18.84658 | -42.92688 | 38122 ft | 456 kts | 296° |
| 2026-04-23 00:34 | -18.81462 | -42.98473 | 38123 ft | 456 kts | 296° |
| 2026-04-23 00:35 | -18.78276 | -43.04250 | 38130 ft | 455 kts | 296° |
| 2026-04-23 00:35 | -18.75148 | -43.10055 | 38127 ft | 455 kts | 295° |
| 2026-04-23 00:36 | -18.72055 | -43.15826 | 38126 ft | 455 kts | 296° |
| 2026-04-23 00:36 | -18.68933 | -43.21625 | 38145 ft | 454 kts | 296° |
| 2026-04-23 00:37 | -18.65862 | -43.27451 | 38133 ft | 454 kts | 295° |
| 2026-04-23 00:37 | -18.62839 | -43.33297 | 38131 ft | 455 kts | 295° |
| 2026-04-23 00:38 | -18.59748 | -43.39114 | 38139 ft | 455 kts | 296° |
| 2026-04-23 00:38 | -18.56652 | -43.44880 | 38137 ft | 455 kts | 296° |
| 2026-04-23 00:39 | -18.53546 | -43.50689 | 38152 ft | 455 kts | 296° |
| 2026-04-23 00:39 | -18.50441 | -43.56497 | 38140 ft | 455 kts | 295° |
| 2026-04-23 00:40 | -18.47473 | -43.62380 | 38153 ft | 455 kts | 294° |
| 2026-04-23 00:40 | -18.44479 | -43.68215 | 38143 ft | 456 kts | 295° |
| 2026-04-23 00:41 | -18.41438 | -43.74079 | 38153 ft | 457 kts | 295° |
| 2026-04-23 00:41 | -18.38397 | -43.79954 | 38149 ft | 457 kts | 295° |
| 2026-04-23 00:42 | -18.35359 | -43.85831 | 38141 ft | 457 kts | 295° |
| 2026-04-23 00:42 | -18.32317 | -43.91709 | 38143 ft | 457 kts | 295° |
| 2026-04-23 00:43 | -18.29298 | -43.97547 | 38166 ft | 457 kts | 295° |
| 2026-04-23 00:43 | -18.26260 | -44.03418 | 38169 ft | 457 kts | 295° |
| 2026-04-23 00:44 | -18.23219 | -44.09289 | 38161 ft | 457 kts | 295° |
| 2026-04-23 00:44 | -18.20179 | -44.15155 | 38169 ft | 457 kts | 295° |
| 2026-04-23 00:45 | -18.17135 | -44.21027 | 38165 ft | 458 kts | 295° |
| 2026-04-23 00:45 | -18.14102 | -44.26862 | 38155 ft | 458 kts | 295° |
| 2026-04-23 00:46 | -18.11049 | -44.32734 | 38156 ft | 458 kts | 295° |
| 2026-04-23 00:46 | -18.07996 | -44.38604 | 38160 ft | 458 kts | 295° |
| 2026-04-23 00:47 | -18.04937 | -44.44472 | 38159 ft | 458 kts | 296° |
| 2026-04-23 00:47 | -18.01818 | -44.50302 | 38161 ft | 458 kts | 296° |
| 2026-04-23 00:48 | -17.98702 | -44.56079 | 38156 ft | 457 kts | 296° |
| 2026-04-23 00:48 | -17.95574 | -44.61895 | 38151 ft | 457 kts | 296° |
| 2026-04-23 00:49 | -17.92451 | -44.67709 | 38154 ft | 457 kts | 296° |
| 2026-04-23 00:49 | -17.89321 | -44.73532 | 38161 ft | 458 kts | 296° |
| 2026-04-23 00:50 | -17.86215 | -44.79368 | 38160 ft | 458 kts | 296° |
| 2026-04-23 00:50 | -17.83203 | -44.85203 | 38152 ft | 458 kts | 295° |
| 2026-04-23 00:51 | -17.80170 | -44.91086 | 38158 ft | 460 kts | 296° |
| 2026-04-23 00:51 | -17.77072 | -44.97065 | 38169 ft | 473 kts | 296° |
| 2026-04-23 00:52 | -17.73887 | -45.03191 | 38168 ft | 483 kts | 296° |
| 2026-04-23 00:52 | -17.70690 | -45.09335 | 38151 ft | 483 kts | 296° |
| 2026-04-23 00:53 | -17.67472 | -45.15515 | 38147 ft | 482 kts | 296° |
| 2026-04-23 00:53 | -17.64091 | -45.21595 | 38160 ft | 483 kts | 300° |
| 2026-04-23 00:54 | -17.60499 | -45.27551 | 38156 ft | 483 kts | 300° |
| 2026-04-23 00:54 | -17.56930 | -45.33459 | 38162 ft | 483 kts | 300° |
| 2026-04-23 00:55 | -17.53374 | -45.39414 | 38156 ft | 482 kts | 300° |
| 2026-04-23 00:55 | -17.49835 | -45.45365 | 38159 ft | 481 kts | 300° |
| 2026-04-23 00:56 | -17.46297 | -45.51309 | 38154 ft | 481 kts | 300° |
| 2026-04-23 00:56 | -17.42757 | -45.57248 | 38160 ft | 481 kts | 300° |
| 2026-04-23 00:57 | -17.39235 | -45.63146 | 38154 ft | 481 kts | 300° |
| 2026-04-23 00:57 | -17.35692 | -45.69079 | 38151 ft | 480 kts | 300° |
| 2026-04-23 00:58 | -17.32149 | -45.75008 | 38157 ft | 480 kts | 300° |
| 2026-04-23 00:58 | -17.28598 | -45.80935 | 38152 ft | 481 kts | 300° |
| 2026-04-23 00:59 | -17.25037 | -45.86856 | 38155 ft | 481 kts | 300° |
| 2026-04-23 00:59 | -17.21498 | -45.92739 | 38165 ft | 481 kts | 300° |
| 2026-04-23 01:00 | -17.17936 | -45.98663 | 38159 ft | 481 kts | 300° |
| 2026-04-23 01:00 | -17.14369 | -46.04587 | 38166 ft | 481 kts | 300° |
| 2026-04-23 01:01 | -17.10798 | -46.10509 | 38158 ft | 482 kts | 300° |
| 2026-04-23 01:01 | -17.07250 | -46.16389 | 38153 ft | 482 kts | 300° |
| 2026-04-23 01:02 | -17.03673 | -46.22318 | 38161 ft | 482 kts | 300° |
| 2026-04-23 01:02 | -17.00142 | -46.28161 | 37711 ft | 469 kts | 300° |
| 2026-04-23 01:02 | -16.98403 | -46.31037 | 37096 ft | 468 kts | 300° |
| 2026-04-23 01:03 | -16.96667 | -46.33908 | 36451 ft | 467 kts | 300° |
| 2026-04-23 01:03 | -16.94937 | -46.36768 | 35926 ft | 464 kts | 301° |
| 2026-04-23 01:03 | -16.93221 | -46.39602 | 35409 ft | 460 kts | 301° |
| 2026-04-23 01:03 | -16.91536 | -46.42386 | 34816 ft | 459 kts | 301° |
| 2026-04-23 01:04 | -16.89832 | -46.45200 | 34237 ft | 458 kts | 301° |
| 2026-04-23 01:04 | -16.88132 | -46.48006 | 33677 ft | 457 kts | 301° |
| 2026-04-23 01:04 | -16.84754 | -46.53576 | 32687 ft | 450 kts | 301° |
| 2026-04-23 01:05 | -16.83085 | -46.56326 | 32228 ft | 447 kts | 301° |
| 2026-04-23 01:05 | -16.81404 | -46.59041 | 31744 ft | 444 kts | 302° |
| 2026-04-23 01:05 | -16.79682 | -46.61710 | 31264 ft | 442 kts | 303° |
| 2026-04-23 01:05 | -16.77977 | -46.64308 | 30810 ft | 439 kts | 303° |
| 2026-04-23 01:06 | -16.76254 | -46.66925 | 30340 ft | 436 kts | 303° |
| 2026-04-23 01:06 | -16.74546 | -46.69527 | 29874 ft | 433 kts | 303° |
| 2026-04-23 01:06 | -16.72854 | -46.72113 | 29406 ft | 429 kts | 303° |
| 2026-04-23 01:06 | -16.71180 | -46.74676 | 28933 ft | 426 kts | 303° |
| 2026-04-23 01:07 | -16.69525 | -46.77215 | 28474 ft | 421 kts | 303° |
| 2026-04-23 01:07 | -16.67888 | -46.79731 | 28024 ft | 417 kts | 304° |
| 2026-04-23 01:07 | -16.66265 | -46.82223 | 27583 ft | 413 kts | 304° |
| 2026-04-23 01:07 | -16.64661 | -46.84687 | 27138 ft | 409 kts | 304° |
| 2026-04-23 01:08 | -16.63092 | -46.87094 | 26682 ft | 404 kts | 304° |
| 2026-04-23 01:08 | -16.61520 | -46.89507 | 26232 ft | 401 kts | 304° |
| 2026-04-23 01:08 | -16.59958 | -46.91903 | 25787 ft | 397 kts | 304° |
| 2026-04-23 01:08 | -16.58413 | -46.94273 | 25359 ft | 393 kts | 304° |
| 2026-04-23 01:09 | -16.56887 | -46.96614 | 24933 ft | 389 kts | 304° |
| 2026-04-23 01:09 | -16.55370 | -46.98939 | 24501 ft | 385 kts | 304° |
| 2026-04-23 01:09 | -16.53910 | -47.01249 | 24256 ft | 378 kts | 300° |
| 2026-04-23 01:09 | -16.52703 | -47.03669 | 24012 ft | 375 kts | 296° |
| 2026-04-23 01:10 | -16.51591 | -47.06083 | 23758 ft | 377 kts | 295° |
| 2026-04-23 01:10 | -16.50441 | -47.08635 | 23548 ft | 401 kts | 295° |
| 2026-04-23 01:10 | -16.49227 | -47.11325 | 23315 ft | 415 kts | 295° |
| 2026-04-23 01:10 | -16.47986 | -47.14050 | 23059 ft | 415 kts | 295° |
| 2026-04-23 01:11 | -16.46745 | -47.16751 | 22797 ft | 411 kts | 296° |
| 2026-04-23 01:11 | -16.45508 | -47.19425 | 22542 ft | 409 kts | 296° |
| 2026-04-23 01:11 | -16.44272 | -47.22084 | 22288 ft | 407 kts | 296° |
| 2026-04-23 01:11 | -16.43040 | -47.24729 | 22035 ft | 405 kts | 296° |
| 2026-04-23 01:12 | -16.41812 | -47.27359 | 21783 ft | 404 kts | 296° |
| 2026-04-23 01:12 | -16.40586 | -47.29987 | 21533 ft | 403 kts | 296° |
| 2026-04-23 01:12 | -16.39379 | -47.32570 | 21288 ft | 402 kts | 296° |
| 2026-04-23 01:12 | -16.38156 | -47.35187 | 21037 ft | 401 kts | 296° |
| 2026-04-23 01:13 | -16.36932 | -47.37800 | 20787 ft | 401 kts | 296° |
| 2026-04-23 01:13 | -16.35713 | -47.40406 | 20542 ft | 401 kts | 296° |
| 2026-04-23 01:13 | -16.34493 | -47.43016 | 20294 ft | 400 kts | 296° |
| 2026-04-23 01:13 | -16.33276 | -47.45614 | 20041 ft | 401 kts | 295° |
| 2026-04-23 01:14 | -16.32021 | -47.48296 | 19824 ft | 423 kts | 295° |
| 2026-04-23 01:14 | -16.30701 | -47.51116 | 19588 ft | 442 kts | 295° |
| 2026-04-23 01:14 | -16.29343 | -47.54016 | 19333 ft | 447 kts | 295° |
| 2026-04-23 01:14 | -16.28001 | -47.56880 | 19081 ft | 445 kts | 295° |
| 2026-04-23 01:15 | -16.26654 | -47.59750 | 18834 ft | 439 kts | 295° |
| 2026-04-23 01:15 | -16.25317 | -47.62595 | 18571 ft | 436 kts | 295° |
| 2026-04-23 01:15 | -16.23988 | -47.65426 | 17709 ft | 436 kts | 295° |
| 2026-04-23 01:15 | -16.22668 | -47.68236 | 16856 ft | 429 kts | 295° |
| 2026-04-23 01:16 | -16.21366 | -47.71008 | 15999 ft | 424 kts | 295° |
| 2026-04-23 01:16 | -16.20078 | -47.73749 | 15145 ft | 419 kts | 295° |
| 2026-04-23 01:16 | -16.18806 | -47.76455 | 14291 ft | 414 kts | 295° |
| 2026-04-23 01:16 | -16.17563 | -47.79096 | 13450 ft | 410 kts | 295° |
| 2026-04-23 01:17 | -16.16317 | -47.81743 | 12620 ft | 406 kts | 295° |
| 2026-04-23 01:17 | -16.15083 | -47.84367 | 11788 ft | 402 kts | 295° |
| 2026-04-23 01:17 | -16.13862 | -47.86963 | 10977 ft | 398 kts | 295° |
| 2026-04-23 01:17 | -16.12676 | -47.89482 | 10813 ft | 377 kts | 296° |
| 2026-04-23 01:18 | -16.11550 | -47.91869 | 10628 ft | 359 kts | 296° |
| 2026-04-23 01:18 | -16.10474 | -47.94150 | 10468 ft | 343 kts | 296° |
| 2026-04-23 01:18 | -16.09446 | -47.96332 | 10323 ft | 329 kts | 296° |
| 2026-04-23 01:18 | -16.08458 | -47.98424 | 10187 ft | 316 kts | 296° |
| 2026-04-23 01:19 | -16.07514 | -48.00426 | 10136 ft | 300 kts | 296° |
| 2026-04-23 01:19 | -16.06604 | -48.02357 | 9585 ft | 304 kts | 296° |
| 2026-04-23 01:19 | -16.05675 | -48.04326 | 9150 ft | 304 kts | 296° |
| 2026-04-23 01:19 | -16.04747 | -48.06293 | 8758 ft | 302 kts | 296° |
| 2026-04-23 01:20 | -16.03826 | -48.08244 | 8359 ft | 300 kts | 296° |
| 2026-04-23 01:20 | -16.02910 | -48.10184 | 7969 ft | 298 kts | 297° |
| 2026-04-23 01:20 | -16.02000 | -48.12106 | 7588 ft | 295 kts | 297° |
| 2026-04-23 01:20 | -16.01097 | -48.14016 | 7221 ft | 294 kts | 296° |
| 2026-04-23 01:21 | -16.00194 | -48.15917 | 6845 ft | 292 kts | 298° |
| 2026-04-23 01:21 | -15.98930 | -48.17539 | 6366 ft | 290 kts | 326° |
| 2026-04-23 01:21 | -15.97157 | -48.18402 | 5948 ft | 284 kts | 349° |
| 2026-04-23 01:21 | -15.95212 | -48.18554 | 5628 ft | 275 kts | 11° |
| 2026-04-23 01:22 | -15.93508 | -48.17844 | 5527 ft | 258 kts | 36° |
| 2026-04-23 01:22 | -15.92245 | -48.16613 | 5489 ft | 242 kts | 54° |
| 2026-04-23 01:22 | -15.91356 | -48.15181 | 5501 ft | 234 kts | 60° |
| 2026-04-23 01:22 | -15.90541 | -48.13735 | 5485 ft | 228 kts | 62° |
| 2026-04-23 01:23 | -15.89756 | -48.12341 | 5480 ft | 217 kts | 61° |
| 2026-04-23 01:23 | -15.89173 | -48.10976 | 5479 ft | 198 kts | 84° |
| 2026-04-23 01:23 | -15.89094 | -48.09616 | 5502 ft | 190 kts | 87° |
| 2026-04-23 01:23 | -15.88995 | -48.08292 | 5486 ft | 178 kts | 86° |
| 2026-04-23 01:24 | -15.88908 | -48.07036 | 5482 ft | 172 kts | 86° |
| 2026-04-23 01:24 | -15.88827 | -48.05815 | 5499 ft | 168 kts | 86° |
| 2026-04-23 01:24 | -15.88749 | -48.04624 | 5488 ft | 162 kts | 86° |
| 2026-04-23 01:24 | -15.88675 | -48.03467 | 5311 ft | 159 kts | 85° |
| 2026-04-23 01:25 | -15.88601 | -48.02322 | 5098 ft | 158 kts | 85° |
| 2026-04-23 01:25 | -15.88528 | -48.01199 | 4890 ft | 154 kts | 86° |
| 2026-04-23 01:25 | -15.88457 | -48.00085 | 4705 ft | 154 kts | 86° |
| 2026-04-23 01:25 | -15.88385 | -47.98973 | 4502 ft | 155 kts | 86° |
| 2026-04-23 01:26 | -15.88315 | -47.97878 | 4293 ft | 154 kts | 86° |
| 2026-04-23 01:26 | -15.88244 | -47.96773 | 4091 ft | 153 kts | 86° |
| 2026-04-23 01:26 | -15.88173 | -47.95674 | 3891 ft | 152 kts | 86° |
| 2026-04-23 01:26 | -15.88107 | -47.94608 | 3704 ft | 146 kts | 86° |
| 2026-04-23 01:27 | -15.88039 | -47.93600 | 3509 ft | 132 kts | 86° |
| 2026-04-23 01:27 | -15.87987 | -47.92772 | 3477 ft | 88 kts | 86° |
| 2026-04-23 01:27 | -15.87959 | -47.92309 | 3474 ft | 55 kts | 85° |
| 2026-04-23 01:27 | -15.87932 | -47.91970 | 3469 ft | 36 kts | 80° |
| 2026-04-23 01:28 | -15.87845 | -47.91765 | 3464 ft | 23 kts | 51° |
| 2026-04-23 01:28 | -15.87762 | -47.91629 | 3460 ft | 22 kts | 56° |
| 2026-04-23 01:28 | -15.87645 | -47.91553 | 3461 ft | 22 kts | 356° |
| 2026-04-23 01:28 | -15.87497 | -47.91563 | 3468 ft | 21 kts | 356° |
| 2026-04-23 01:29 | -15.87353 | -47.91574 | 3470 ft | 20 kts | 356° |
| 2026-04-23 01:29 | -15.87210 | -47.91583 | 3471 ft | 20 kts | 357° |
| 2026-04-23 01:29 | -15.87076 | -47.91592 | 3471 ft | 20 kts | 355° |
| 2026-04-23 01:29 | -15.86940 | -47.91600 | 3469 ft | 16 kts | 356° |
| 2026-04-23 01:30 | -15.86898 | -47.91661 | 3471 ft | 11 kts | 265° |
| 2026-04-23 01:30 | -15.86840 | -47.91701 | 3471 ft | 12 kts | 356° |
| 2026-04-23 01:30 | -15.86750 | -47.91708 | 3471 ft | 14 kts | 356° |
| 2026-04-23 01:30 | -15.86652 | -47.91716 | 3470 ft | 14 kts | 345° |
| 2026-04-23 01:31 | -15.86613 | -47.91797 | 3470 ft | 13 kts | 267° |
| 2026-04-23 01:31 | -15.86638 | -47.91849 | 3470 ft | 5 kts | 175° |
| 2026-04-23 01:31 | -15.86670 | -47.91846 | 3471 ft | 5 kts | 176° |
| 2026-04-23 01:31 | -15.86700 | -47.91844 | 3471 ft | 3 kts | 176° |
| 2026-04-23 01:32 | -15.86712 | -47.91843 | 3469 ft | 0 kts | 175° |